createdAt,value
2022-10-09T00:08:11.942Z,0.1
2022-10-09T00:18:11.866Z,0.1
2022-10-09T00:28:11.960Z,0.1
2022-10-09T00:38:11.886Z,0.2
2022-10-09T00:48:11.949Z,0.2
2022-10-09T00:58:11.905Z,0.2
2022-10-09T01:08:11.983Z,0.2
2022-10-09T01:18:12.102Z,0.2
2022-10-09T01:28:12.018Z,0.2
2022-10-09T01:38:12.124Z,0.3
2022-10-09T01:48:11.972Z,0.3
2022-10-09T01:58:12.172Z,0.3
2022-10-09T02:08:11.990Z,0.3
2022-10-09T02:18:12.143Z,0.3
2022-10-09T02:28:12.018Z,0.3
2022-10-09T02:38:12.124Z,0.4
2022-10-09T02:48:12.176Z,0.4
2022-10-09T02:58:12.141Z,0.4
2022-10-09T03:08:12.179Z,0.4
2022-10-09T03:18:12.124Z,0.4
2022-10-09T03:28:12.211Z,0.4
2022-10-09T03:38:12.131Z,0.5
2022-10-09T03:48:12.215Z,0.5
2022-10-09T03:58:12.161Z,0.5
2022-10-09T04:08:12.209Z,0.5
2022-10-09T04:18:12.124Z,0.5
2022-10-09T04:28:12.320Z,0.5
2022-10-09T04:38:12.125Z,0.6
2022-10-09T04:48:12.192Z,0.6
2022-10-09T04:58:12.147Z,0.6
2022-10-09T05:08:12.200Z,0.6
2022-10-09T05:18:12.325Z,0.6
2022-10-09T05:28:12.261Z,0.6
2022-10-09T05:38:12.338Z,0.7
2022-10-09T05:48:12.190Z,0.7
2022-10-09T05:58:12.323Z,0.7
2022-10-09T06:08:12.218Z,0.7
2022-10-09T06:18:12.333Z,0.7
2022-10-09T06:28:12.507Z,0.7
2022-10-09T06:38:12.334Z,0.8
2022-10-09T06:48:12.261Z,0.8
2022-10-09T06:58:12.442Z,0.8
2022-10-09T07:08:12.283Z,0.8
2022-10-09T07:18:12.410Z,0.8
2022-10-09T07:28:12.334Z,0.8
2022-10-09T07:38:12.423Z,0.9
2022-10-09T07:48:12.523Z,0.9
2022-10-09T07:58:12.416Z,0.9
2022-10-09T08:08:12.491Z,0.9
2022-10-09T08:18:12.747Z,0.9
2022-10-09T08:28:12.528Z,0.9
2022-10-09T08:38:25.551Z,1
2022-10-09T08:48:12.490Z,1
2022-10-09T08:58:12.428Z,1
2022-10-09T09:08:12.507Z,1
2022-10-09T09:18:12.445Z,1
2022-10-09T09:28:12.859Z,1
2022-10-09T09:38:12.473Z,1.1
2022-10-09T09:48:12.526Z,1.1
2022-10-09T09:58:12.749Z,1.1
2022-10-09T10:08:12.538Z,1.2
2022-10-09T10:18:12.658Z,1.2
2022-10-09T10:28:12.582Z,1.2
2022-10-09T10:38:12.686Z,1.2
2022-10-09T10:48:12.530Z,1.2
2022-10-09T10:58:12.672Z,1.2
2022-10-09T11:08:12.516Z,1.3
2022-10-09T11:18:12.669Z,1.3
2022-10-09T11:28:12.759Z,1.3
2022-10-09T11:38:12.625Z,1.3
2022-10-09T11:48:12.716Z,1.3
2022-10-09T11:58:12.645Z,1.3
2022-10-09T12:08:14.043Z,1.4
2022-10-09T12:18:12.652Z,1.4
2022-10-09T12:28:12.943Z,1.4
2022-10-09T12:38:12.837Z,1.4
2022-10-09T12:48:12.899Z,1.4
2022-10-09T12:58:13.057Z,1.4
2022-10-09T13:08:12.971Z,1.5
2022-10-09T13:18:13.067Z,1.5
2022-10-09T13:28:12.928Z,1.5
2022-10-09T13:38:12.987Z,1.5
2022-10-09T13:48:12.794Z,1.5
2022-10-09T13:58:12.999Z,1.5
2022-10-09T14:08:12.659Z,1.6
2022-10-09T14:18:12.784Z,1.6
2022-10-09T14:28:12.916Z,1.6
2022-10-09T14:38:12.792Z,1.7
2022-10-09T14:48:12.851Z,1.7
2022-10-09T14:58:12.800Z,1.7
2022-10-09T15:08:12.858Z,1.8
2022-10-09T15:18:12.770Z,1.8
2022-10-09T15:28:12.855Z,1.8
2022-10-09T15:38:12.971Z,1.8
2022-10-09T15:48:12.849Z,1.8
2022-10-09T15:58:12.966Z,1.8
2022-10-09T16:08:12.827Z,1.9
2022-10-09T16:18:12.957Z,1.9
2022-10-09T16:28:12.912Z,1.9
2022-10-09T16:38:12.974Z,1.9
2022-10-09T16:48:12.825Z,1.9
2022-10-09T16:58:12.940Z,1.9
2022-10-09T17:08:13.014Z,2
2022-10-09T17:18:12.933Z,2
2022-10-09T17:28:13.077Z,2
2022-10-09T17:38:12.947Z,2
2022-10-09T17:48:13.022Z,2
2022-10-09T17:58:12.943Z,2
2022-10-09T18:08:13.024Z,2.1
2022-10-09T18:18:12.982Z,2.1
2022-10-09T18:28:13.093Z,2.1
2022-10-09T18:38:13.162Z,2.2
2022-10-09T18:48:13.015Z,2.2
2022-10-09T18:58:13.166Z,2.2
2022-10-09T19:08:13.032Z,2.2
2022-10-09T19:18:13.150Z,2.2
2022-10-09T19:28:13.046Z,2.2
2022-10-09T19:38:13.130Z,2.3
2022-10-09T19:48:12.998Z,2.3
2022-10-09T19:58:13.154Z,2.3
2022-10-09T20:08:13.207Z,2.4
2022-10-09T20:18:13.141Z,2.4
2022-10-09T20:28:13.269Z,2.4
2022-10-09T20:38:13.139Z,2.4
2022-10-09T20:48:13.235Z,2.4
2022-10-09T20:58:13.150Z,2.4
2022-10-09T21:08:13.217Z,2.5
2022-10-09T21:18:13.164Z,2.5
2022-10-09T21:28:13.257Z,2.5
2022-10-09T21:38:13.349Z,2.7
2022-10-09T21:48:13.236Z,2.7
2022-10-09T21:58:13.377Z,2.7
2022-10-09T22:08:13.209Z,2.7
2022-10-09T22:18:13.334Z,2.7
2022-10-09T22:28:13.362Z,2.7
2022-10-09T22:38:13.442Z,2.8
2022-10-09T22:48:13.214Z,2.8
2022-10-09T22:58:13.351Z,2.8
2022-10-09T23:08:13.235Z,0
2022-10-09T23:18:13.347Z,0
2022-10-09T23:28:13.663Z,0
2022-10-09T23:38:13.305Z,0.1
2022-10-09T23:48:13.372Z,0.1
2022-10-09T23:58:16.089Z,0.1
